sensor_id;sensor_type;location;lat;lon;timestamp;P1;durP1;ratioP1;P2;durP2;ratioP2
51660;SDS011;37741;49.748;8.490;2024-03-25T00:02:00;6.35;;;1.73;;
51660;SDS011;37741;49.748;8.490;2024-03-25T00:04:25;3.75;;;1.80;;
51660;SDS011;37741;49.748;8.490;2024-03-25T00:06:51;4.18;;;1.55;;
51660;SDS011;37741;49.748;8.490;2024-03-25T00:09:18;4.22;;;1.83;;
51660;SDS011;37741;49.748;8.490;2024-03-25T00:11:43;3.83;;;1.50;;
51660;SDS011;37741;49.748;8.490;2024-03-25T00:14:09;3.65;;;1.42;;
51660;SDS011;37741;49.748;8.490;2024-03-25T00:16:35;6.15;;;2.17;;
51660;SDS011;37741;49.748;8.490;2024-03-25T00:19:02;3.67;;;1.70;;
51660;SDS011;37741;49.748;8.490;2024-03-25T00:21:27;3.40;;;1.60;;
51660;SDS011;37741;49.748;8.490;2024-03-25T00:23:53;3.92;;;1.60;;
51660;SDS011;37741;49.748;8.490;2024-03-25T00:26:22;5.78;;;1.80;;
51660;SDS011;37741;49.748;8.490;2024-03-25T00:28:48;3.55;;;1.73;;
51660;SDS011;37741;49.748;8.490;2024-03-25T00:31:13;3.15;;;1.50;;
51660;SDS011;37741;49.748;8.490;2024-03-25T00:33:39;3.67;;;1.50;;
51660;SDS011;37741;49.748;8.490;2024-03-25T00:36:05;3.40;;;1.63;;
51660;SDS011;37741;49.748;8.490;2024-03-25T00:38:31;5.82;;;1.85;;
51660;SDS011;37741;49.748;8.490;2024-03-25T00:40:56;3.35;;;1.55;;
51660;SDS011;37741;49.748;8.490;2024-03-25T00:43:22;3.38;;;1.40;;
51660;SDS011;37741;49.748;8.490;2024-03-25T00:45:48;4.55;;;1.50;;
51660;SDS011;37741;49.748;8.490;2024-03-25T00:48:14;3.33;;;1.67;;
51660;SDS011;37741;49.748;8.490;2024-03-25T00:50:40;2.75;;;1.58;;
51660;SDS011;37741;49.748;8.490;2024-03-25T00:53:05;3.08;;;1.50;;
51660;SDS011;37741;49.748;8.490;2024-03-25T00:55:32;3.50;;;1.58;;
51660;SDS011;37741;49.748;8.490;2024-03-25T00:57:58;4.40;;;1.63;;
51660;SDS011;37741;49.748;8.490;2024-03-25T01:00:24;2.85;;;1.10;;
51660;SDS011;37741;49.748;8.490;2024-03-25T01:02:50;3.40;;;1.42;;
51660;SDS011;37741;49.748;8.490;2024-03-25T01:05:15;3.90;;;1.35;;
51660;SDS011;37741;49.748;8.490;2024-03-25T01:07:41;2.92;;;1.63;;
51660;SDS011;37741;49.748;8.490;2024-03-25T01:10:07;2.70;;;1.42;;
51660;SDS011;37741;49.748;8.490;2024-03-25T01:12:33;2.47;;;1.33;;
51660;SDS011;37741;49.748;8.490;2024-03-25T01:14:58;4.05;;;1.23;;
51660;SDS011;37741;49.748;8.490;2024-03-25T01:17:24;3.63;;;1.30;;
51660;SDS011;37741;49.748;8.490;2024-03-25T01:19:49;3.90;;;1.45;;
51660;SDS011;37741;49.748;8.490;2024-03-25T01:22:15;4.20;;;1.40;;
51660;SDS011;37741;49.748;8.490;2024-03-25T01:24:41;4.40;;;1.42;;
51660;SDS011;37741;49.748;8.490;2024-03-25T01:27:06;3.55;;;1.50;;
51660;SDS011;37741;49.748;8.490;2024-03-25T01:29:32;3.15;;;1.48;;
51660;SDS011;37741;49.748;8.490;2024-03-25T01:31:57;3.33;;;1.48;;
51660;SDS011;37741;49.748;8.490;2024-03-25T01:34:24;3.83;;;1.42;;
51660;SDS011;37741;49.748;8.490;2024-03-25T01:36:52;3.42;;;1.48;;
51660;SDS011;37741;49.748;8.490;2024-03-25T01:39:18;3.33;;;1.40;;
51660;SDS011;37741;49.748;8.490;2024-03-25T01:41:43;3.70;;;1.60;;
51660;SDS011;37741;49.748;8.490;2024-03-25T01:44:10;3.28;;;1.52;;
51660;SDS011;37741;49.748;8.490;2024-03-25T01:46:36;2.67;;;1.33;;
51660;SDS011;37741;49.748;8.490;2024-03-25T01:49:02;4.00;;;1.63;;
51660;SDS011;37741;49.748;8.490;2024-03-25T01:51:28;3.10;;;1.45;;
51660;SDS011;37741;49.748;8.490;2024-03-25T01:53:54;4.82;;;1.80;;
51660;SDS011;37741;49.748;8.490;2024-03-25T01:56:22;4.30;;;1.40;;
51660;SDS011;37741;49.748;8.490;2024-03-25T01:58:49;3.25;;;1.70;;
51660;SDS011;37741;49.748;8.490;2024-03-25T02:01:15;4.82;;;1.92;;
51660;SDS011;37741;49.748;8.490;2024-03-25T02:03:44;3.22;;;1.40;;
51660;SDS011;37741;49.748;8.490;2024-03-25T02:06:12;4.75;;;1.50;;
51660;SDS011;37741;49.748;8.490;2024-03-25T02:08:41;3.67;;;1.60;;
51660;SDS011;37741;49.748;8.490;2024-03-25T02:11:08;4.32;;;1.42;;
51660;SDS011;37741;49.748;8.490;2024-03-25T02:13:35;5.22;;;2.30;;
51660;SDS011;37741;49.748;8.490;2024-03-25T02:16:02;3.22;;;1.40;;
51660;SDS011;37741;49.748;8.490;2024-03-25T02:18:28;2.95;;;1.38;;
51660;SDS011;37741;49.748;8.490;2024-03-25T02:20:55;4.20;;;1.27;;
51660;SDS011;37741;49.748;8.490;2024-03-25T02:23:22;3.15;;;1.40;;
51660;SDS011;37741;49.748;8.490;2024-03-25T02:25:50;3.80;;;1.45;;
51660;SDS011;37741;49.748;8.490;2024-03-25T02:28:17;3.25;;;1.25;;
51660;SDS011;37741;49.748;8.490;2024-03-25T02:30:43;3.17;;;1.20;;
51660;SDS011;37741;49.748;8.490;2024-03-25T02:33:09;4.32;;;1.40;;
51660;SDS011;37741;49.748;8.490;2024-03-25T02:35:35;4.90;;;1.17;;
51660;SDS011;37741;49.748;8.490;2024-03-25T02:38:02;5.35;;;1.40;;
51660;SDS011;37741;49.748;8.490;2024-03-25T02:40:28;3.13;;;1.27;;
51660;SDS011;37741;49.748;8.490;2024-03-25T02:42:54;3.75;;;2.08;;
51660;SDS011;37741;49.748;8.490;2024-03-25T02:45:20;2.63;;;1.02;;
51660;SDS011;37741;49.748;8.490;2024-03-25T02:47:46;4.35;;;1.52;;
51660;SDS011;37741;49.748;8.490;2024-03-25T02:50:12;3.53;;;1.17;;
51660;SDS011;37741;49.748;8.490;2024-03-25T02:52:38;4.55;;;1.33;;
51660;SDS011;37741;49.748;8.490;2024-03-25T02:55:04;2.63;;;1.23;;
51660;SDS011;37741;49.748;8.490;2024-03-25T02:57:29;3.30;;;1.30;;
51660;SDS011;37741;49.748;8.490;2024-03-25T02:59:55;3.63;;;1.40;;
51660;SDS011;37741;49.748;8.490;2024-03-25T03:02:21;5.03;;;1.35;;
51660;SDS011;37741;49.748;8.490;2024-03-25T03:04:46;3.85;;;1.35;;
51660;SDS011;37741;49.748;8.490;2024-03-25T03:07:12;2.67;;;1.17;;
51660;SDS011;37741;49.748;8.490;2024-03-25T03:09:37;2.50;;;1.25;;
51660;SDS011;37741;49.748;8.490;2024-03-25T03:12:03;2.75;;;1.02;;
51660;SDS011;37741;49.748;8.490;2024-03-25T03:14:29;3.53;;;1.33;;
51660;SDS011;37741;49.748;8.490;2024-03-25T03:16:55;2.58;;;1.27;;
51660;SDS011;37741;49.748;8.490;2024-03-25T03:19:24;4.78;;;1.60;;
51660;SDS011;37741;49.748;8.490;2024-03-25T03:21:50;4.90;;;1.13;;
51660;SDS011;37741;49.748;8.490;2024-03-25T03:24:16;4.72;;;1.25;;
51660;SDS011;37741;49.748;8.490;2024-03-25T03:26:41;5.63;;;1.42;;
51660;SDS011;37741;49.748;8.490;2024-03-25T03:29:07;5.20;;;1.67;;
51660;SDS011;37741;49.748;8.490;2024-03-25T03:31:33;3.47;;;1.30;;
51660;SDS011;37741;49.748;8.490;2024-03-25T03:33:59;6.03;;;2.67;;
51660;SDS011;37741;49.748;8.490;2024-03-25T03:36:24;2.80;;;1.15;;
51660;SDS011;37741;49.748;8.490;2024-03-25T03:38:50;4.38;;;1.70;;
51660;SDS011;37741;49.748;8.490;2024-03-25T03:41:16;3.75;;;1.35;;
51660;SDS011;37741;49.748;8.490;2024-03-25T03:43:42;3.80;;;1.55;;
51660;SDS011;37741;49.748;8.490;2024-03-25T03:46:08;3.95;;;1.50;;
51660;SDS011;37741;49.748;8.490;2024-03-25T03:48:34;3.60;;;1.40;;
51660;SDS011;37741;49.748;8.490;2024-03-25T03:51:00;3.15;;;1.40;;
51660;SDS011;37741;49.748;8.490;2024-03-25T03:53:26;3.90;;;1.30;;
51660;SDS011;37741;49.748;8.490;2024-03-25T03:55:53;4.07;;;1.75;;
51660;SDS011;37741;49.748;8.490;2024-03-25T03:58:22;3.60;;;1.63;;
51660;SDS011;37741;49.748;8.490;2024-03-25T04:00:49;4.13;;;1.77;;
51660;SDS011;37741;49.748;8.490;2024-03-25T04:03:14;5.28;;;1.58;;
51660;SDS011;37741;49.748;8.490;2024-03-25T04:05:40;4.05;;;1.60;;
51660;SDS011;37741;49.748;8.490;2024-03-25T04:08:06;5.10;;;1.63;;
51660;SDS011;37741;49.748;8.490;2024-03-25T04:10:32;5.10;;;2.17;;
51660;SDS011;37741;49.748;8.490;2024-03-25T04:12:58;4.18;;;1.85;;
51660;SDS011;37741;49.748;8.490;2024-03-25T04:15:24;4.70;;;1.90;;
51660;SDS011;37741;49.748;8.490;2024-03-25T04:17:51;3.38;;;1.65;;
51660;SDS011;37741;49.748;8.490;2024-03-25T04:20:16;3.03;;;1.20;;
51660;SDS011;37741;49.748;8.490;2024-03-25T04:22:43;4.15;;;1.80;;
51660;SDS011;37741;49.748;8.490;2024-03-25T04:25:09;4.28;;;1.58;;
51660;SDS011;37741;49.748;8.490;2024-03-25T04:27:44;3.28;;;1.30;;
51660;SDS011;37741;49.748;8.490;2024-03-25T04:30:10;3.65;;;1.50;;
51660;SDS011;37741;49.748;8.490;2024-03-25T04:32:37;5.60;;;1.85;;
51660;SDS011;37741;49.748;8.490;2024-03-25T04:35:03;4.53;;;1.67;;
51660;SDS011;37741;49.748;8.490;2024-03-25T04:37:31;5.22;;;1.70;;
51660;SDS011;37741;49.748;8.490;2024-03-25T04:39:57;3.63;;;2.08;;
51660;SDS011;37741;49.748;8.490;2024-03-25T04:42:22;4.55;;;2.15;;
51660;SDS011;37741;49.748;8.490;2024-03-25T04:44:51;4.22;;;1.60;;
51660;SDS011;37741;49.748;8.490;2024-03-25T04:47:17;6.60;;;1.55;;
51660;SDS011;37741;49.748;8.490;2024-03-25T04:49:43;4.32;;;1.45;;
51660;SDS011;37741;49.748;8.490;2024-03-25T04:52:09;3.05;;;1.35;;
51660;SDS011;37741;49.748;8.490;2024-03-25T04:54:38;2.78;;;1.23;;
51660;SDS011;37741;49.748;8.490;2024-03-25T04:57:04;3.03;;;1.60;;
51660;SDS011;37741;49.748;8.490;2024-03-25T04:59:31;4.13;;;1.85;;
51660;SDS011;37741;49.748;8.490;2024-03-25T05:01:57;3.47;;;1.50;;
51660;SDS011;37741;49.748;8.490;2024-03-25T05:04:22;3.17;;;1.55;;
51660;SDS011;37741;49.748;8.490;2024-03-25T05:06:49;3.53;;;1.70;;
51660;SDS011;37741;49.748;8.490;2024-03-25T05:09:15;4.63;;;1.58;;
51660;SDS011;37741;49.748;8.490;2024-03-25T05:11:41;3.92;;;1.75;;
51660;SDS011;37741;49.748;8.490;2024-03-25T05:14:07;3.65;;;2.10;;
51660;SDS011;37741;49.748;8.490;2024-03-25T05:16:33;3.28;;;1.55;;
51660;SDS011;37741;49.748;8.490;2024-03-25T05:18:58;2.97;;;1.60;;
51660;SDS011;37741;49.748;8.490;2024-03-25T05:21:24;5.30;;;1.48;;
51660;SDS011;37741;49.748;8.490;2024-03-25T05:23:49;5.57;;;2.08;;
51660;SDS011;37741;49.748;8.490;2024-03-25T05:26:15;3.47;;;1.50;;
51660;SDS011;37741;49.748;8.490;2024-03-25T05:28:41;4.43;;;2.40;;
51660;SDS011;37741;49.748;8.490;2024-03-25T05:31:09;4.60;;;2.58;;
51660;SDS011;37741;49.748;8.490;2024-03-25T05:33:35;5.43;;;2.47;;
51660;SDS011;37741;49.748;8.490;2024-03-25T05:36:02;2.85;;;1.88;;
51660;SDS011;37741;49.748;8.490;2024-03-25T05:38:31;6.15;;;2.10;;
51660;SDS011;37741;49.748;8.490;2024-03-25T05:40:57;5.13;;;2.45;;
51660;SDS011;37741;49.748;8.490;2024-03-25T05:43:23;4.07;;;2.75;;
51660;SDS011;37741;49.748;8.490;2024-03-25T05:45:52;4.07;;;2.00;;
51660;SDS011;37741;49.748;8.490;2024-03-25T05:48:18;4.28;;;1.95;;
51660;SDS011;37741;49.748;8.490;2024-03-25T05:51:02;6.93;;;2.13;;
51660;SDS011;37741;49.748;8.490;2024-03-25T05:53:35;4.38;;;1.90;;
51660;SDS011;37741;49.748;8.490;2024-03-25T05:56:03;7.05;;;2.67;;
51660;SDS011;37741;49.748;8.490;2024-03-25T05:58:29;4.72;;;2.47;;
51660;SDS011;37741;49.748;8.490;2024-03-25T06:00:54;4.88;;;2.53;;
51660;SDS011;37741;49.748;8.490;2024-03-25T06:03:20;5.97;;;2.72;;
51660;SDS011;37741;49.748;8.490;2024-03-25T06:05:46;5.00;;;2.17;;
51660;SDS011;37741;49.748;8.490;2024-03-25T06:08:12;3.50;;;2.05;;
51660;SDS011;37741;49.748;8.490;2024-03-25T06:10:46;4.78;;;2.20;;
51660;SDS011;37741;49.748;8.490;2024-03-25T06:13:12;3.70;;;2.40;;
51660;SDS011;37741;49.748;8.490;2024-03-25T06:15:38;5.30;;;2.63;;
51660;SDS011;37741;49.748;8.490;2024-03-25T06:18:04;4.75;;;2.08;;
51660;SDS011;37741;49.748;8.490;2024-03-25T06:20:30;5.53;;;2.88;;
51660;SDS011;37741;49.748;8.490;2024-03-25T06:22:56;4.90;;;2.80;;
51660;SDS011;37741;49.748;8.490;2024-03-25T06:25:22;4.88;;;2.20;;
51660;SDS011;37741;49.748;8.490;2024-03-25T06:27:47;5.28;;;2.05;;
51660;SDS011;37741;49.748;8.490;2024-03-25T06:30:13;5.50;;;2.53;;
51660;SDS011;37741;49.748;8.490;2024-03-25T06:32:57;4.00;;;2.47;;
51660;SDS011;37741;49.748;8.490;2024-03-25T06:35:44;3.58;;;2.28;;
51660;SDS011;37741;49.748;8.490;2024-03-25T06:38:10;5.32;;;2.70;;
51660;SDS011;37741;49.748;8.490;2024-03-25T06:40:36;4.63;;;2.50;;
51660;SDS011;37741;49.748;8.490;2024-03-25T06:43:03;5.50;;;2.33;;
51660;SDS011;37741;49.748;8.490;2024-03-25T06:45:29;5.00;;;2.42;;
51660;SDS011;37741;49.748;8.490;2024-03-25T06:47:55;4.40;;;1.88;;
51660;SDS011;37741;49.748;8.490;2024-03-25T06:50:22;3.92;;;1.85;;
51660;SDS011;37741;49.748;8.490;2024-03-25T06:52:48;6.35;;;2.90;;
51660;SDS011;37741;49.748;8.490;2024-03-25T06:55:14;4.38;;;2.30;;
51660;SDS011;37741;49.748;8.490;2024-03-25T06:57:40;5.82;;;2.75;;
51660;SDS011;37741;49.748;8.490;2024-03-25T07:00:06;4.25;;;2.15;;
51660;SDS011;37741;49.748;8.490;2024-03-25T07:02:38;4.63;;;2.70;;
51660;SDS011;37741;49.748;8.490;2024-03-25T07:05:04;4.78;;;2.38;;
51660;SDS011;37741;49.748;8.490;2024-03-25T07:07:30;5.15;;;2.60;;
51660;SDS011;37741;49.748;8.490;2024-03-25T07:09:56;5.57;;;2.40;;
51660;SDS011;37741;49.748;8.490;2024-03-25T07:12:23;6.05;;;2.65;;
51660;SDS011;37741;49.748;8.490;2024-03-25T07:14:48;3.78;;;2.17;;
51660;SDS011;37741;49.748;8.490;2024-03-25T07:17:14;4.15;;;2.33;;
51660;SDS011;37741;49.748;8.490;2024-03-25T07:19:40;4.50;;;2.65;;
51660;SDS011;37741;49.748;8.490;2024-03-25T07:22:05;7.70;;;3.20;;
51660;SDS011;37741;49.748;8.490;2024-03-25T07:24:32;3.53;;;2.30;;
51660;SDS011;37741;49.748;8.490;2024-03-25T07:26:57;5.10;;;2.42;;
51660;SDS011;37741;49.748;8.490;2024-03-25T07:29:23;5.18;;;2.63;;
51660;SDS011;37741;49.748;8.490;2024-03-25T07:31:49;4.63;;;2.30;;
51660;SDS011;37741;49.748;8.490;2024-03-25T07:34:14;4.95;;;2.53;;
51660;SDS011;37741;49.748;8.490;2024-03-25T07:36:40;4.32;;;2.58;;
51660;SDS011;37741;49.748;8.490;2024-03-25T07:39:07;6.00;;;2.63;;
51660;SDS011;37741;49.748;8.490;2024-03-25T07:41:36;4.85;;;2.58;;
51660;SDS011;37741;49.748;8.490;2024-03-25T07:44:02;4.57;;;2.72;;
51660;SDS011;37741;49.748;8.490;2024-03-25T07:46:28;4.88;;;3.40;;
51660;SDS011;37741;49.748;8.490;2024-03-25T07:48:53;4.65;;;2.70;;
51660;SDS011;37741;49.748;8.490;2024-03-25T07:51:19;6.30;;;3.10;;
51660;SDS011;37741;49.748;8.490;2024-03-25T07:53:44;6.68;;;2.83;;
51660;SDS011;37741;49.748;8.490;2024-03-25T07:56:10;4.47;;;2.90;;
51660;SDS011;37741;49.748;8.490;2024-03-25T07:58:36;4.57;;;2.30;;
51660;SDS011;37741;49.748;8.490;2024-03-25T08:01:01;6.43;;;3.38;;
51660;SDS011;37741;49.748;8.490;2024-03-25T08:03:27;5.85;;;3.15;;
51660;SDS011;37741;49.748;8.490;2024-03-25T08:05:53;8.65;;;3.80;;
51660;SDS011;37741;49.748;8.490;2024-03-25T08:08:18;10.18;;;4.72;;
51660;SDS011;37741;49.748;8.490;2024-03-25T08:10:45;4.90;;;3.28;;
51660;SDS011;37741;49.748;8.490;2024-03-25T08:13:10;5.55;;;2.90;;
51660;SDS011;37741;49.748;8.490;2024-03-25T08:15:36;6.60;;;2.75;;
51660;SDS011;37741;49.748;8.490;2024-03-25T08:18:02;5.18;;;2.50;;
51660;SDS011;37741;49.748;8.490;2024-03-25T08:20:28;6.05;;;3.28;;
51660;SDS011;37741;49.748;8.490;2024-03-25T08:22:53;5.10;;;3.08;;
51660;SDS011;37741;49.748;8.490;2024-03-25T08:25:19;5.10;;;2.90;;
51660;SDS011;37741;49.748;8.490;2024-03-25T08:27:45;5.28;;;3.33;;
51660;SDS011;37741;49.748;8.490;2024-03-25T08:30:11;5.63;;;2.55;;
51660;SDS011;37741;49.748;8.490;2024-03-25T08:32:37;3.92;;;2.90;;
51660;SDS011;37741;49.748;8.490;2024-03-25T08:35:03;6.65;;;2.90;;
51660;SDS011;37741;49.748;8.490;2024-03-25T08:37:28;7.63;;;3.17;;
51660;SDS011;37741;49.748;8.490;2024-03-25T08:39:54;6.53;;;2.88;;
51660;SDS011;37741;49.748;8.490;2024-03-25T08:42:20;4.72;;;2.60;;
51660;SDS011;37741;49.748;8.490;2024-03-25T08:44:46;6.18;;;2.72;;
51660;SDS011;37741;49.748;8.490;2024-03-25T08:47:12;4.85;;;2.25;;
51660;SDS011;37741;49.748;8.490;2024-03-25T08:49:37;4.45;;;2.10;;
51660;SDS011;37741;49.748;8.490;2024-03-25T08:52:03;5.00;;;2.72;;
51660;SDS011;37741;49.748;8.490;2024-03-25T08:54:29;7.35;;;2.85;;
51660;SDS011;37741;49.748;8.490;2024-03-25T08:56:54;4.32;;;2.92;;
51660;SDS011;37741;49.748;8.490;2024-03-25T08:59:23;5.97;;;2.70;;
51660;SDS011;37741;49.748;8.490;2024-03-25T09:01:55;7.72;;;3.00;;
51660;SDS011;37741;49.748;8.490;2024-03-25T09:04:21;4.10;;;2.40;;
51660;SDS011;37741;49.748;8.490;2024-03-25T09:06:47;4.80;;;2.35;;
51660;SDS011;37741;49.748;8.490;2024-03-25T09:09:13;6.25;;;3.47;;
51660;SDS011;37741;49.748;8.490;2024-03-25T09:11:57;4.60;;;2.42;;
51660;SDS011;37741;49.748;8.490;2024-03-25T09:14:24;5.38;;;2.42;;
51660;SDS011;37741;49.748;8.490;2024-03-25T09:16:49;7.90;;;3.08;;
51660;SDS011;37741;49.748;8.490;2024-03-25T09:19:15;4.53;;;2.28;;
51660;SDS011;37741;49.748;8.490;2024-03-25T09:21:41;4.53;;;2.53;;
51660;SDS011;37741;49.748;8.490;2024-03-25T09:24:06;6.60;;;2.60;;
51660;SDS011;37741;49.748;8.490;2024-03-25T09:26:33;6.05;;;2.10;;
51660;SDS011;37741;49.748;8.490;2024-03-25T09:28:58;6.10;;;2.10;;
51660;SDS011;37741;49.748;8.490;2024-03-25T09:31:24;5.82;;;2.33;;
51660;SDS011;37741;49.748;8.490;2024-03-25T09:33:49;5.25;;;2.70;;
51660;SDS011;37741;49.748;8.490;2024-03-25T09:36:15;3.10;;;2.05;;
51660;SDS011;37741;49.748;8.490;2024-03-25T09:38:41;4.50;;;2.30;;
51660;SDS011;37741;49.748;8.490;2024-03-25T09:41:08;5.93;;;2.08;;
51660;SDS011;37741;49.748;8.490;2024-03-25T09:43:39;3.78;;;2.00;;
51660;SDS011;37741;49.748;8.490;2024-03-25T09:46:10;3.70;;;2.00;;
51660;SDS011;37741;49.748;8.490;2024-03-25T09:48:36;5.95;;;2.38;;
51660;SDS011;37741;49.748;8.490;2024-03-25T09:51:04;3.85;;;1.85;;
51660;SDS011;37741;49.748;8.490;2024-03-25T09:53:30;5.53;;;2.47;;
51660;SDS011;37741;49.748;8.490;2024-03-25T09:55:56;5.03;;;2.30;;
51660;SDS011;37741;49.748;8.490;2024-03-25T09:58:22;5.55;;;1.73;;
51660;SDS011;37741;49.748;8.490;2024-03-25T10:00:49;3.47;;;1.77;;
51660;SDS011;37741;49.748;8.490;2024-03-25T10:03:15;6.78;;;1.98;;
51660;SDS011;37741;49.748;8.490;2024-03-25T10:05:41;4.10;;;2.00;;
51660;SDS011;37741;49.748;8.490;2024-03-25T10:08:07;7.10;;;2.45;;
51660;SDS011;37741;49.748;8.490;2024-03-25T10:10:36;5.03;;;1.52;;
51660;SDS011;37741;49.748;8.490;2024-03-25T10:13:04;8.25;;;2.15;;
51660;SDS011;37741;49.748;8.490;2024-03-25T10:15:31;5.65;;;1.95;;
51660;SDS011;37741;49.748;8.490;2024-03-25T10:17:57;7.22;;;2.17;;
51660;SDS011;37741;49.748;8.490;2024-03-25T10:20:23;7.07;;;2.30;;
51660;SDS011;37741;49.748;8.490;2024-03-25T10:22:50;4.70;;;1.75;;
51660;SDS011;37741;49.748;8.490;2024-03-25T10:25:25;4.15;;;1.85;;
51660;SDS011;37741;49.748;8.490;2024-03-25T10:27:52;5.60;;;2.10;;
51660;SDS011;37741;49.748;8.490;2024-03-25T10:30:28;4.35;;;1.70;;
51660;SDS011;37741;49.748;8.490;2024-03-25T10:33:01;4.03;;;1.70;;
51660;SDS011;37741;49.748;8.490;2024-03-25T10:35:33;4.78;;;2.20;;
51660;SDS011;37741;49.748;8.490;2024-03-25T10:38:01;6.32;;;1.70;;
51660;SDS011;37741;49.748;8.490;2024-03-25T10:40:36;5.55;;;1.73;;
51660;SDS011;37741;49.748;8.490;2024-03-25T10:45:40;4.68;;;1.90;;
51660;SDS011;37741;49.748;8.490;2024-03-25T10:48:09;6.82;;;2.33;;
51660;SDS011;37741;49.748;8.490;2024-03-25T10:50:40;4.82;;;2.05;;
51660;SDS011;37741;49.748;8.490;2024-03-25T10:53:15;4.03;;;2.13;;
51660;SDS011;37741;49.748;8.490;2024-03-25T10:55:44;4.80;;;1.95;;
51660;SDS011;37741;49.748;8.490;2024-03-25T10:58:15;5.07;;;1.90;;
51660;SDS011;37741;49.748;8.490;2024-03-25T11:00:42;3.58;;;1.92;;
51660;SDS011;37741;49.748;8.490;2024-03-25T11:03:11;5.60;;;1.52;;
51660;SDS011;37741;49.748;8.490;2024-03-25T11:05:37;6.00;;;1.80;;
51660;SDS011;37741;49.748;8.490;2024-03-25T11:08:13;3.53;;;2.22;;
51660;SDS011;37741;49.748;8.490;2024-03-25T11:10:39;3.55;;;1.85;;
51660;SDS011;37741;49.748;8.490;2024-03-25T11:13:09;6.07;;;1.67;;
51660;SDS011;37741;49.748;8.490;2024-03-25T11:15:37;3.92;;;2.22;;
51660;SDS011;37741;49.748;8.490;2024-03-25T11:18:10;7.47;;;2.33;;
51660;SDS011;37741;49.748;8.490;2024-03-25T11:20:39;5.07;;;1.92;;
51660;SDS011;37741;49.748;8.490;2024-03-25T11:23:09;7.68;;;1.60;;
51660;SDS011;37741;49.748;8.490;2024-03-25T11:25:36;2.33;;;1.30;;
51660;SDS011;37741;49.748;8.490;2024-03-25T11:28:02;7.60;;;2.08;;
51660;SDS011;37741;49.748;8.490;2024-03-25T11:30:28;4.60;;;2.15;;
51660;SDS011;37741;49.748;8.490;2024-03-25T11:32:56;6.18;;;1.92;;
51660;SDS011;37741;49.748;8.490;2024-03-25T11:35:24;6.38;;;2.38;;
51660;SDS011;37741;49.748;8.490;2024-03-25T11:37:49;6.70;;;2.63;;
51660;SDS011;37741;49.748;8.490;2024-03-25T11:40:17;6.28;;;2.00;;
51660;SDS011;37741;49.748;8.490;2024-03-25T11:42:43;4.57;;;1.85;;
51660;SDS011;37741;49.748;8.490;2024-03-25T11:45:14;5.10;;;2.30;;
51660;SDS011;37741;49.748;8.490;2024-03-25T11:47:44;4.10;;;1.95;;
51660;SDS011;37741;49.748;8.490;2024-03-25T11:50:16;4.32;;;1.83;;
51660;SDS011;37741;49.748;8.490;2024-03-25T11:52:43;6.53;;;2.55;;
51660;SDS011;37741;49.748;8.490;2024-03-25T11:55:09;7.32;;;2.00;;
51660;SDS011;37741;49.748;8.490;2024-03-25T11:57:37;3.15;;;1.60;;
51660;SDS011;37741;49.748;8.490;2024-03-25T12:00:03;5.32;;;2.00;;
51660;SDS011;37741;49.748;8.490;2024-03-25T12:02:36;3.30;;;1.58;;
51660;SDS011;37741;49.748;8.490;2024-03-25T12:05:08;6.32;;;2.10;;
51660;SDS011;37741;49.748;8.490;2024-03-25T12:07:34;5.53;;;2.03;;
51660;SDS011;37741;49.748;8.490;2024-03-25T12:10:01;4.22;;;1.80;;
51660;SDS011;37741;49.748;8.490;2024-03-25T12:12:46;5.55;;;1.80;;
51660;SDS011;37741;49.748;8.490;2024-03-25T12:15:12;7.13;;;1.83;;
51660;SDS011;37741;49.748;8.490;2024-03-25T12:17:38;3.05;;;2.03;;
51660;SDS011;37741;49.748;8.490;2024-03-25T12:20:05;3.72;;;1.50;;
51660;SDS011;37741;49.748;8.490;2024-03-25T12:22:34;5.00;;;1.75;;
51660;SDS011;37741;49.748;8.490;2024-03-25T12:25:01;3.63;;;1.60;;
51660;SDS011;37741;49.748;8.490;2024-03-25T12:27:29;3.15;;;1.60;;
51660;SDS011;37741;49.748;8.490;2024-03-25T12:29:59;3.95;;;1.58;;
51660;SDS011;37741;49.748;8.490;2024-03-25T12:32:35;3.47;;;1.67;;
51660;SDS011;37741;49.748;8.490;2024-03-25T12:37:35;5.70;;;2.08;;
51660;SDS011;37741;49.748;8.490;2024-03-25T12:40:05;4.15;;;1.65;;
51660;SDS011;37741;49.748;8.490;2024-03-25T12:42:33;4.05;;;1.75;;
51660;SDS011;37741;49.748;8.490;2024-03-25T12:44:59;5.40;;;1.77;;
51660;SDS011;37741;49.748;8.490;2024-03-25T12:47:25;4.07;;;1.63;;
51660;SDS011;37741;49.748;8.490;2024-03-25T12:49:51;3.67;;;1.65;;
51660;SDS011;37741;49.748;8.490;2024-03-25T12:52:16;6.72;;;2.00;;
51660;SDS011;37741;49.748;8.490;2024-03-25T12:54:42;4.10;;;2.00;;
51660;SDS011;37741;49.748;8.490;2024-03-25T12:57:08;3.50;;;1.70;;
51660;SDS011;37741;49.748;8.490;2024-03-25T12:59:34;4.20;;;1.90;;
51660;SDS011;37741;49.748;8.490;2024-03-25T13:02:00;6.40;;;1.42;;
51660;SDS011;37741;49.748;8.490;2024-03-25T13:04:26;6.80;;;1.88;;
51660;SDS011;37741;49.748;8.490;2024-03-25T13:06:52;3.83;;;1.30;;
51660;SDS011;37741;49.748;8.490;2024-03-25T13:09:17;2.92;;;1.30;;
51660;SDS011;37741;49.748;8.490;2024-03-25T13:11:44;5.20;;;1.75;;
51660;SDS011;37741;49.748;8.490;2024-03-25T13:14:13;5.55;;;1.90;;
51660;SDS011;37741;49.748;8.490;2024-03-25T13:16:41;4.50;;;1.48;;
51660;SDS011;37741;49.748;8.490;2024-03-25T13:19:07;5.10;;;1.90;;
51660;SDS011;37741;49.748;8.490;2024-03-25T13:21:33;4.82;;;1.92;;
51660;SDS011;37741;49.748;8.490;2024-03-25T13:23:59;4.57;;;1.77;;
51660;SDS011;37741;49.748;8.490;2024-03-25T13:26:24;3.08;;;1.50;;
51660;SDS011;37741;49.748;8.490;2024-03-25T13:28:51;6.00;;;1.63;;
51660;SDS011;37741;49.748;8.490;2024-03-25T13:31:17;4.07;;;1.60;;
51660;SDS011;37741;49.748;8.490;2024-03-25T13:33:42;4.32;;;1.35;;
51660;SDS011;37741;49.748;8.490;2024-03-25T13:36:08;4.03;;;1.45;;
51660;SDS011;37741;49.748;8.490;2024-03-25T13:38:34;5.75;;;1.63;;
51660;SDS011;37741;49.748;8.490;2024-03-25T13:41:00;2.22;;;1.00;;
51660;SDS011;37741;49.748;8.490;2024-03-25T13:43:26;4.80;;;1.60;;
51660;SDS011;37741;49.748;8.490;2024-03-25T13:45:52;3.90;;;1.20;;
51660;SDS011;37741;49.748;8.490;2024-03-25T13:48:17;3.42;;;1.35;;
51660;SDS011;37741;49.748;8.490;2024-03-25T13:50:44;3.75;;;1.38;;
51660;SDS011;37741;49.748;8.490;2024-03-25T13:53:10;4.32;;;1.20;;
51660;SDS011;37741;49.748;8.490;2024-03-25T13:55:36;3.80;;;1.10;;
51660;SDS011;37741;49.748;8.490;2024-03-25T13:58:01;2.28;;;1.00;;
51660;SDS011;37741;49.748;8.490;2024-03-25T14:00:27;3.08;;;1.23;;
51660;SDS011;37741;49.748;8.490;2024-03-25T14:02:54;4.47;;;1.30;;
51660;SDS011;37741;49.748;8.490;2024-03-25T14:05:20;2.05;;;1.00;;
51660;SDS011;37741;49.748;8.490;2024-03-25T14:07:48;3.72;;;1.10;;
51660;SDS011;37741;49.748;8.490;2024-03-25T14:10:14;3.03;;;1.40;;
51660;SDS011;37741;49.748;8.490;2024-03-25T14:12:40;2.67;;;1.20;;
51660;SDS011;37741;49.748;8.490;2024-03-25T14:15:05;3.90;;;1.40;;
51660;SDS011;37741;49.748;8.490;2024-03-25T14:17:32;4.05;;;1.20;;
51660;SDS011;37741;49.748;8.490;2024-03-25T14:19:57;4.55;;;1.10;;
51660;SDS011;37741;49.748;8.490;2024-03-25T14:22:23;5.28;;;1.33;;
51660;SDS011;37741;49.748;8.490;2024-03-25T14:24:49;3.47;;;1.40;;
51660;SDS011;37741;49.748;8.490;2024-03-25T14:27:17;3.45;;;1.10;;
51660;SDS011;37741;49.748;8.490;2024-03-25T14:29:43;3.88;;;1.88;;
51660;SDS011;37741;49.748;8.490;2024-03-25T14:32:08;3.15;;;1.10;;
51660;SDS011;37741;49.748;8.490;2024-03-25T14:34:34;3.70;;;2.28;;
51660;SDS011;37741;49.748;8.490;2024-03-25T14:37:00;4.88;;;1.10;;
51660;SDS011;37741;49.748;8.490;2024-03-25T14:39:29;2.72;;;1.15;;
51660;SDS011;37741;49.748;8.490;2024-03-25T14:41:54;3.35;;;1.42;;
51660;SDS011;37741;49.748;8.490;2024-03-25T14:44:20;3.28;;;1.20;;
51660;SDS011;37741;49.748;8.490;2024-03-25T14:46:46;4.65;;;1.08;;
51660;SDS011;37741;49.748;8.490;2024-03-25T14:49:12;2.70;;;1.10;;
51660;SDS011;37741;49.748;8.490;2024-03-25T14:51:37;5.32;;;1.13;;